Time;durP1;ratioP1;P1;durP2;ratioP2;P2;SDS_P1;SDS_P2;PMS_P1;PMS_P2;Temp;Humidity;BMP_temperature;BMP_pressure;BME280_temperature;BME280_humidity;BME280_pressure;Samples;Min_cycle;Max_cycle;Signal;HPM_P1;HPM_P2
2022/04/10 00:01:58;;;;;;;3.67;1.00;;;;;;;2.57;100.00;99112.00;5023896;28;20053;-49
2022/04/10 00:04:42;;;;;;;3.88;1.13;;;;;;;2.62;100.00;99105.06;5024589;28;20046;-49
2022/04/10 00:07:27;;;;;;;2.92;1.00;;;;;;;2.76;100.00;99105.88;5023733;28;20554;-50
2022/04/10 00:10:11;;;;;;;3.75;1.77;;;;;;;2.76;100.00;99100.72;5026438;28;20134;-49
2022/04/10 00:12:56;;;;;;;6.53;1.40;;;;;;;2.81;100.00;99096.34;5024856;28;20432;-50
2022/04/10 00:15:41;;;;;;;6.65;1.83;;;;;;;2.91;100.00;99107.53;5024753;28;20037;-50
2022/04/10 00:18:26;;;;;;;5.97;1.33;;;;;;;2.79;100.00;99105.88;5022583;28;20500;-50
2022/04/10 00:21:10;;;;;;;3.75;0.98;;;;;;;2.85;100.00;99114.44;5023773;28;20141;-49
2022/04/10 00:23:55;;;;;;;6.47;1.10;;;;;;;2.80;100.00;99112.75;5024634;28;20042;-49
2022/04/10 00:26:39;;;;;;;7.28;1.02;;;;;;;2.83;100.00;99108.41;5022208;28;20053;-49
2022/04/10 00:29:24;;;;;;;2.83;0.50;;;;;;;2.79;100.00;99111.03;5023815;28;20035;-50
2022/04/10 00:32:09;;;;;;;3.45;1.48;;;;;;;2.75;100.00;99118.81;5025916;28;20046;-49
2022/04/10 00:34:54;;;;;;;9.45;3.03;;;;;;;2.73;100.00;99115.34;5022940;28;20052;-49
2022/04/10 00:37:39;;;;;;;9.90;3.80;;;;;;;2.63;100.00;99111.09;5022775;28;20049;-50
2022/04/10 00:40:23;;;;;;;14.52;4.53;;;;;;;2.58;100.00;99119.75;5024063;28;20037;-49
2022/04/10 00:43:08;;;;;;;7.22;2.55;;;;;;;2.58;100.00;99121.47;5022842;28;20045;-50
2022/04/10 00:45:53;;;;;;;8.13;3.40;;;;;;;2.54;100.00;99120.63;5022138;28;20053;-49
2022/04/10 00:48:37;;;;;;;5.72;2.08;;;;;;;2.46;100.00;99119.78;5022378;28;20080;-50
2022/04/10 00:51:40;;;;;;;4.10;1.80;;;;;;;2.45;100.00;99117.22;5023044;28;20037;-50
2022/04/10 00:54:26;;;;;;;4.13;1.30;;;;;;;2.38;100.00;99131.88;5022211;28;20477;-49
2022/04/10 00:57:11;;;;;;;3.25;1.17;;;;;;;2.31;100.00;99135.34;5022496;28;20552;-50
2022/04/10 00:59:56;;;;;;;4.97;1.10;;;;;;;2.20;100.00;99137.06;5020161;28;20079;-49
2022/04/10 01:02:40;;;;;;;2.85;1.30;;;;;;;2.08;100.00;99132.78;5023667;28;20041;-50
2022/04/10 01:05:25;;;;;;;7.10;2.10;;;;;;;2.13;100.00;99150.88;5023975;28;20053;-49
2022/04/10 01:08:10;;;;;;;5.35;1.60;;;;;;;2.12;100.00;99151.75;5023896;28;20065;-49
2022/04/10 01:10:54;;;;;;;5.90;3.10;;;;;;;2.03;100.00;99153.47;5027634;28;20384;-49
2022/04/10 01:13:39;;;;;;;6.88;1.95;;;;;;;2.00;100.00;99152.63;5025997;28;20045;-49
2022/04/10 01:16:24;;;;;;;6.05;1.83;;;;;;;1.93;100.00;99144.00;5026562;28;20065;-49
2022/04/10 01:19:10;;;;;;;7.63;2.30;;;;;;;1.88;100.00;99145.72;5025428;28;20115;-49
2022/04/10 01:22:00;;;;;;;5.03;2.17;;;;;;;1.92;100.00;99151.75;5025833;28;20056;-49
2022/04/10 01:24:47;;;;;;;5.13;2.20;;;;;;;1.87;100.00;99167.25;5025001;28;20060;-50
2022/04/10 01:27:40;;;;;;;5.93;2.25;;;;;;;1.79;100.00;99167.25;5026417;28;20041;-49
2022/04/10 01:30:25;;;;;;;4.15;2.38;;;;;;;1.76;100.00;99169.84;5025225;28;21402;-49
2022/04/10 01:33:10;;;;;;;5.03;1.70;;;;;;;1.75;100.00;99167.25;5024829;28;20496;-49
2022/04/10 01:35:55;;;;;;;6.22;2.75;;;;;;;1.69;100.00;99160.38;5025479;28;20431;-49
2022/04/10 01:38:42;;;;;;;4.32;1.83;;;;;;;1.75;100.00;99169.81;5025655;28;20450;-50
2022/04/10 01:41:27;;;;;;;6.78;2.50;;;;;;;1.74;100.00;99168.97;5025324;28;20049;-49
2022/04/10 01:44:14;;;;;;;5.35;2.53;;;;;;;1.71;100.00;99176.72;5025232;28;20049;-49
2022/04/10 01:47:00;;;;;;;4.32;1.63;;;;;;;1.72;100.00;99178.44;5024916;28;20053;-49
2022/04/10 01:49:44;;;;;;;5.80;2.05;;;;;;;1.68;100.00;99178.44;5025792;28;20041;-49
2022/04/10 01:52:29;;;;;;;5.20;2.40;;;;;;;1.61;100.00;99186.19;5025468;28;20064;-49
2022/04/10 01:55:14;;;;;;;4.05;2.25;;;;;;;1.64;100.00;99186.19;5024451;28;20148;-49
2022/04/10 01:58:00;;;;;;;5.68;2.30;;;;;;;1.62;100.00;99187.03;5024342;28;20052;-49
2022/04/10 02:00:45;;;;;;;3.90;2.38;;;;;;;1.59;100.00;99179.28;5025479;28;20050;-49
2022/04/10 02:03:29;;;;;;;3.40;2.17;;;;;;;1.57;100.00;99181.03;5024745;28;20053;-49
2022/04/10 02:06:15;;;;;;;5.90;2.95;;;;;;;1.61;100.00;99187.91;5024647;28;20053;-49
2022/04/10 02:09:09;;;;;;;8.35;3.33;;;;;;;1.60;100.00;99187.03;5025365;28;20158;-49
2022/04/10 02:11:55;;;;;;;4.97;2.55;;;;;;;1.55;100.00;99188.75;5023885;28;20045;-49
2022/04/10 02:14:40;;;;;;;3.67;2.33;;;;;;;1.56;100.00;99192.19;5025367;28;20069;-49
2022/04/10 02:17:25;;;;;;;5.43;2.80;;;;;;;1.60;100.00;99193.94;5024347;28;20061;-49
2022/04/10 02:20:09;;;;;;;7.65;2.83;;;;;;;1.58;100.00;99193.06;5024615;28;20053;-49
2022/04/10 02:22:54;;;;;;;6.45;2.65;;;;;;;1.56;100.00;99192.19;5024601;28;20037;-49
2022/04/10 02:25:39;;;;;;;3.85;2.08;;;;;;;1.55;100.00;99201.66;5025113;28;20072;-49
2022/04/10 02:28:24;;;;;;;5.40;2.85;;;;;;;1.57;100.00;99197.38;5024678;28;20053;-49
2022/04/10 02:31:08;;;;;;;4.68;2.60;;;;;;;1.51;100.00;99194.78;5024304;28;20068;-49
2022/04/10 02:33:53;;;;;;;5.22;2.45;;;;;;;1.53;100.00;99207.69;5024162;28;20045;-49
2022/04/10 02:36:39;;;;;;;5.10;2.47;;;;;;;1.46;100.00;99211.09;5024995;28;20065;-49
2022/04/10 02:39:24;;;;;;;5.63;2.30;;;;;;;1.37;100.00;99210.22;5024431;28;20046;-49
2022/04/10 02:42:08;;;;;;;3.60;2.42;;;;;;;1.34;100.00;99220.53;5025141;28;20049;-49
2022/04/10 02:44:53;;;;;;;5.47;3.00;;;;;;;1.26;100.00;99216.22;5023378;28;20053;-48
2022/04/10 02:47:38;;;;;;;6.68;2.85;;;;;;;1.20;100.00;99217.03;5024055;28;20045;-49
2022/04/10 02:50:22;;;;;;;3.92;2.38;;;;;;;1.13;100.00;99212.72;5023847;28;20057;-49
2022/04/10 02:53:07;;;;;;;5.80;2.53;;;;;;;1.12;100.00;99218.75;5025117;28;20049;-49
2022/04/10 02:55:53;;;;;;;4.15;2.40;;;;;;;1.10;100.00;99220.44;5024154;28;20541;-49
2022/04/10 02:58:38;;;;;;;6.65;3.72;;;;;;;1.06;100.00;99235.06;5024622;28;21753;-49
2022/04/10 03:01:23;;;;;;;4.95;3.47;;;;;;;1.03;100.00;99231.59;5023986;28;20120;-49
2022/04/10 03:04:08;;;;;;;6.82;3.20;;;;;;;0.92;100.00;99229.84;5023802;28;20111;-49
2022/04/10 03:06:53;;;;;;;5.78;3.03;;;;;;;0.95;100.00;99248.78;5023746;28;20037;-49
2022/04/10 03:09:38;;;;;;;5.07;3.30;;;;;;;0.91;100.00;99248.75;5024751;28;20053;-48
2022/04/10 03:12:22;;;;;;;7.75;3.50;;;;;;;0.91;100.00;99247.88;5024837;28;20404;-49
2022/04/10 03:15:07;;;;;;;6.53;3.25;;;;;;;0.88;100.00;99247.88;5024407;28;20053;-49
2022/04/10 03:17:53;;;;;;;7.40;3.97;;;;;;;0.84;100.00;99249.56;5023428;28;20060;-49
2022/04/10 03:20:38;;;;;;;9.02;4.88;;;;;;;0.89;100.00;99253.03;5022824;28;20041;-49
2022/04/10 03:23:23;;;;;;;8.45;3.65;;;;;;;0.97;100.00;99257.38;5022024;28;20041;-49
2022/04/10 03:26:09;;;;;;;5.35;3.67;;;;;;;1.00;100.00;99257.38;5023995;28;20057;-49
2022/04/10 03:28:54;;;;;;;7.00;3.70;;;;;;;1.07;100.00;99257.44;5022284;28;20042;-49
2022/04/10 03:31:39;;;;;;;9.38;4.03;;;;;;;1.12;100.00;99266.03;5023457;28;20053;-49
2022/04/10 03:34:24;;;;;;;6.00;3.42;;;;;;;1.20;100.00;99267.78;5023271;28;20057;-49
2022/04/10 03:37:09;;;;;;;6.20;3.38;;;;;;;1.23;100.00;99266.06;5022963;28;20572;-49
2022/04/10 03:39:54;;;;;;;6.10;3.67;;;;;;;1.26;100.00;99271.25;5023730;28;20564;-49
2022/04/10 03:42:40;;;;;;;5.47;4.00;;;;;;;1.23;100.00;99276.41;5024319;28;20037;-49
2022/04/10 03:45:26;;;;;;;5.35;3.45;;;;;;;1.20;100.00;99272.94;5022536;28;20045;-49
2022/04/10 03:48:12;;;;;;;6.47;3.83;;;;;;;1.24;100.00;99272.13;5021261;28;20053;-49
2022/04/10 03:50:58;;;;;;;8.98;4.43;;;;;;;1.27;100.00;99285.00;5021736;28;20046;-49
2022/04/10 03:53:42;;;;;;;7.47;3.67;;;;;;;1.31;100.00;99287.63;5022054;28;20038;-49
2022/04/10 03:56:28;;;;;;;7.00;4.05;;;;;;;1.33;100.00;99297.94;5022964;28;20428;-49
2022/04/10 03:59:14;;;;;;;8.60;4.40;;;;;;;1.35;100.00;99302.25;5022046;28;20623;-49
2022/04/10 04:01:58;;;;;;;11.18;5.50;;;;;;;1.43;100.00;99301.41;5019840;28;20139;-50
2022/04/10 04:04:43;;;;;;;5.78;3.75;;;;;;;1.53;100.00;99310.94;5019931;28;20061;-49
2022/04/10 04:07:29;;;;;;;8.32;3.92;;;;;;;1.56;100.00;99319.56;5021797;28;20052;-50
2022/04/10 04:10:15;;;;;;;5.68;3.58;;;;;;;1.57;100.00;99317.84;5023366;28;20057;-49
2022/04/10 04:12:59;;;;;;;8.95;3.88;;;;;;;1.72;100.00;99320.44;5022490;28;20068;-49
2022/04/10 04:15:44;;;;;;;9.93;4.55;;;;;;;1.75;100.00;99325.63;5021231;28;20736;-49
2022/04/10 04:18:29;;;;;;;8.15;3.75;;;;;;;1.88;100.00;99329.09;5020548;28;20208;-49
2022/04/10 04:21:13;;;;;;;12.52;4.90;;;;;;;1.99;100.00;99336.88;5019871;28;20565;-49
2022/04/10 04:24:02;;;;;;;8.48;5.03;;;;;;;2.05;100.00;99342.06;5019754;28;20679;-49
2022/04/10 04:26:47;;;;;;;7.35;4.28;;;;;;;2.14;100.00;99342.06;5020883;28;20041;-49
2022/04/10 04:29:34;;;;;;;8.07;4.72;;;;;;;2.27;100.00;99341.22;5020353;28;20037;-50
2022/04/10 04:32:19;;;;;;;9.13;3.97;;;;;;;2.28;100.00;99352.44;5020522;28;20041;-49
2022/04/10 04:35:04;;;;;;;7.18;3.58;;;;;;;2.32;100.00;99349.84;5022200;28;20041;-49
2022/04/10 04:37:49;;;;;;;8.50;4.45;;;;;;;2.44;100.00;99359.34;5022693;28;20064;-49
2022/04/10 04:40:38;;;;;;;7.68;3.80;;;;;;;2.46;100.00;99370.53;5022674;28;20120;-49
2022/04/10 04:43:23;;;;;;;7.60;4.90;;;;;;;2.54;100.00;99367.97;5027652;28;21421;-49
2022/04/10 04:46:08;;;;;;;8.57;3.72;;;;;;;2.60;100.00;99377.44;5029007;28;20041;-49
2022/04/10 04:48:53;;;;;;;8.25;3.83;;;;;;;2.68;100.00;99378.31;5028941;28;20060;-49
2022/04/10 04:51:37;;;;;;;8.57;4.32;;;;;;;2.66;100.00;99378.28;5028670;28;20053;-49
2022/04/10 04:54:23;;;;;;;7.65;4.15;;;;;;;2.69;100.00;99383.47;5027806;28;20104;-49
2022/04/10 04:57:07;;;;;;;6.70;3.90;;;;;;;2.80;100.00;99386.06;5028858;28;20033;-49
2022/04/10 04:59:56;;;;;;;8.82;3.80;;;;;;;2.83;100.00;99399.00;5027990;28;20042;-49
2022/04/10 05:02:41;;;;;;;6.43;3.58;;;;;;;2.89;100.00;99404.16;5024291;28;20049;-50
2022/04/10 05:05:26;;;;;;;5.78;3.95;;;;;;;2.97;100.00;99406.75;5024533;28;20046;-49
2022/04/10 05:08:12;;;;;;;7.88;4.30;;;;;;;2.87;100.00;99397.28;5025668;28;20110;-49
2022/04/10 05:10:56;;;;;;;10.32;4.85;;;;;;;2.92;100.00;99395.53;5026256;28;20044;-49
2022/04/10 05:13:42;;;;;;;7.13;3.90;;;;;;;3.03;100.00;99399.84;5025713;28;20045;-49
2022/04/10 05:16:27;;;;;;;6.63;3.42;;;;;;;3.07;100.00;99411.06;5026253;28;20092;-49
2022/04/10 05:19:14;;;;;;;10.23;4.20;;;;;;;3.24;100.00;99414.47;5025707;28;20488;-49
2022/04/10 05:21:59;;;;;;;4.45;3.83;;;;;;;3.24;100.00;99418.78;5025791;28;20071;-50
2022/04/10 05:24:44;;;;;;;6.20;3.55;;;;;;;3.37;100.00;99422.22;5025492;28;20049;-49
2022/04/10 05:27:28;;;;;;;5.30;3.17;;;;;;;3.42;100.00;99418.75;5026800;28;20394;-49
2022/04/10 05:30:13;;;;;;;7.75;3.35;;;;;;;3.51;100.00;99412.72;5025255;28;20060;-50
2022/04/10 05:33:00;;;;;;;7.85;3.40;;;;;;;3.41;100.00;99417.03;5024530;28;20037;-50
2022/04/10 05:35:47;;;;;;;6.07;3.30;;;;;;;3.58;100.00;99422.19;5025024;28;20041;-50
2022/04/10 05:38:32;;;;;;;11.18;3.50;;;;;;;3.58;100.00;99429.94;5026117;28;20053;-49
2022/04/10 05:41:17;;;;;;;7.55;2.97;;;;;;;3.51;100.00;99434.28;5025088;28;20752;-49
2022/04/10 05:44:06;;;;;;;8.10;3.47;;;;;;;3.69;100.00;99437.66;5023035;28;20554;-49
2022/04/10 05:46:52;;;;;;;6.40;3.20;;;;;;;3.96;100.00;99427.22;5024791;28;20480;-50
2022/04/10 05:49:40;;;;;;;5.47;3.03;;;;;;;4.27;100.00;99433.97;5023877;28;20060;-49
2022/04/10 05:52:25;;;;;;;5.18;2.72;;;;;;;4.55;100.00;99426.88;5026057;28;20579;-50
2022/04/10 05:55:14;;;;;;;5.45;3.28;;;;;;;4.54;100.00;99436.38;5021541;28;20049;-50
2022/04/10 05:58:01;;;;;;;5.82;2.90;;;;;;;4.77;100.00;99432.78;5021261;28;20314;-50
2022/04/10 06:00:47;;;;;;;6.00;2.42;;;;;;;5.40;100.00;99443.50;5021640;28;20057;-50
2022/04/10 06:03:36;;;;;;;2.08;1.80;;;;;;;5.68;100.00;99436.25;5020975;28;20103;-50
2022/04/10 06:06:24;;;;;;;5.07;2.72;;;;;;;5.90;100.00;99433.41;5022258;28;20049;-50
2022/04/10 06:09:16;;;;;;;10.15;3.70;;;;;;;5.82;100.00;99444.78;5019901;28;20053;-49
2022/04/10 06:12:01;;;;;;;8.80;3.33;;;;;;;6.06;100.00;99438.44;5021161;28;20045;-50
2022/04/10 06:14:51;;;;;;;6.70;2.88;;;;;;;5.99;100.00;99438.53;5020417;28;20037;-50
2022/04/10 06:17:36;;;;;;;6.53;3.38;;;;;;;6.18;100.00;99445.22;5020277;28;20054;-50
2022/04/10 06:20:21;;;;;;;6.60;4.05;;;;;;;5.94;100.00;99442.91;5020499;28;20045;-50
2022/04/10 06:23:06;;;;;;;6.70;3.45;;;;;;;6.40;100.00;99439.72;5021840;28;20444;-50
2022/04/10 06:25:52;;;;;;;6.00;2.65;;;;;;;6.75;100.00;99444.41;5021040;28;20053;-50
2022/04/10 06:28:37;;;;;;;8.20;2.97;;;;;;;6.62;100.00;99446.34;5021447;28;20063;-51
2022/04/10 06:31:26;;;;;;;4.72;2.30;;;;;;;7.18;100.00;99444.59;5020043;28;20080;-51
2022/04/10 06:34:11;;;;;;;8.02;2.63;;;;;;;7.56;100.00;99448.25;5020164;28;20045;-51
2022/04/10 06:36:57;;;;;;;6.22;2.25;;;;;;;7.72;100.00;99447.06;5020851;28;20049;-50
2022/04/10 06:39:42;;;;;;;10.55;6.70;;;;;;;7.27;100.00;99451.38;5021622;28;20976;-50
2022/04/10 06:42:27;;;;;;;4.45;3.38;;;;;;;7.83;100.00;99454.72;5020506;28;20050;-50
2022/04/10 06:45:23;;;;;;;4.82;3.30;;;;;;;8.12;100.00;99455.84;5021001;28;20049;-50
2022/04/10 06:48:14;;;;;;;34.92;24.00;;;;;;;7.81;100.00;99455.63;5021711;28;20049;-49
2022/04/10 06:51:04;;;;;;;15.25;7.97;;;;;;;7.14;100.00;99458.53;5019660;28;20093;-49
2022/04/10 06:53:49;;;;;;;9.77;3.42;;;;;;;7.25;100.00;99466.19;5020522;28;20046;-49
2022/04/10 06:56:33;;;;;;;9.57;2.42;;;;;;;7.06;100.00;99457.81;5020158;28;20050;-50
2022/04/10 06:59:18;;;;;;;5.43;2.63;;;;;;;7.08;100.00;99463.84;5020857;28;20073;-50
2022/04/10 07:02:04;;;;;;;7.32;2.65;;;;;;;7.06;100.00;99464.78;5019642;28;20041;-50
2022/04/10 07:04:49;;;;;;;7.63;2.55;;;;;;;7.13;100.00;99472.47;5020163;28;20164;-50
2022/04/10 07:07:34;;;;;;;4.88;2.15;;;;;;;7.65;100.00;99474.16;5019961;28;20050;-50
2022/04/10 07:10:18;;;;;;;5.65;2.45;;;;;;;6.94;100.00;99474.50;5019488;28;20103;-51
2022/04/10 07:13:04;;;;;;;5.63;2.58;;;;;;;7.43;100.00;99471.06;5019533;28;20053;-50
2022/04/10 07:15:50;;;;;;;8.07;2.60;;;;;;;7.39;100.00;99468.56;5019700;28;20114;-50
2022/04/10 07:18:35;;;;;;;6.38;2.67;;;;;;;7.66;100.00;99469.78;5021003;28;20034;-50
2022/04/10 07:24:31;;;;;;;13.27;8.52;;;;;;;7.66;100.00;99483.69;5020041;28;20752;-51
2022/04/10 07:27:16;;;;;;;88.38;57.38;;;;;;;7.60;100.00;99473.38;5032985;28;20057;-50
2022/04/10 07:30:18;;;;;;;5.60;3.30;;;;;;;7.44;100.00;99477.13;5021519;28;21206;-50
2022/04/10 07:33:03;;;;;;;6.45;2.10;;;;;;;7.27;100.00;99482.63;5019101;28;20045;-50
2022/04/10 07:35:50;;;;;;;6.50;2.60;;;;;;;7.10;100.00;99476.88;5020401;28;20697;-50
2022/04/10 07:38:38;;;;;;;4.72;3.13;;;;;;;7.06;100.00;99480.41;5019841;28;20045;-50
2022/04/10 07:41:27;;;;;;;9.25;2.30;;;;;;;6.68;100.00;99490.50;5019877;28;20084;-50
2022/04/10 07:44:12;;;;;;;6.13;2.80;;;;;;;6.58;100.00;99496.72;5020947;28;20687;-50
2022/04/10 07:50:00;;;;;;;8.40;2.85;;;;;;;6.25;100.00;99496.28;5020082;28;20053;-50
2022/04/10 07:52:45;;;;;;;4.20;1.98;;;;;;;6.03;100.00;99495.66;5021049;28;20356;-50
2022/04/10 07:55:39;;;;;;;6.32;2.90;;;;;;;6.41;100.00;99499.56;5020116;28;20049;-50
2022/04/10 07:58:26;;;;;;;5.10;2.33;;;;;;;6.51;100.00;99498.53;5021553;28;20057;-49
2022/04/10 08:01:12;;;;;;;7.82;2.28;;;;;;;6.28;100.00;99508.41;5019156;28;20041;-51
2022/04/10 08:03:57;;;;;;;4.35;2.60;;;;;;;6.18;100.00;99506.78;5019630;28;20053;-50
2022/04/10 08:06:59;;;;;;;9.90;3.08;;;;;;;5.98;100.00;99513.09;5021967;28;20057;-50
2022/04/10 08:09:44;;;;;;;9.48;3.22;;;;;;;5.71;100.00;99516.78;5020774;28;20050;-49
2022/04/10 08:12:28;;;;;;;9.05;2.88;;;;;;;5.79;100.00;99519.31;5021310;28;20116;-50
2022/04/10 08:15:14;;;;;;;7.50;1.92;;;;;;;5.92;100.00;99523.50;5019844;28;20496;-51
2022/04/10 08:17:58;;;;;;;4.88;2.33;;;;;;;5.95;100.00;99522.66;5021887;28;20046;-50
2022/04/10 08:20:42;;;;;;;5.40;2.17;;;;;;;6.26;100.00;99516.19;5021228;28;20061;-50
2022/04/10 08:23:27;;;;;;;6.38;2.03;;;;;;;6.94;100.00;99526.56;5020747;28;20042;-50
2022/04/10 08:26:11;;;;;;;3.65;1.95;;;;;;;7.09;100.00;99528.09;5020772;28;20053;-50
2022/04/10 08:28:55;;;;;;;6.07;1.95;;;;;;;6.95;100.00;99523.06;5021003;28;20598;-50
2022/04/10 08:31:40;;;;;;;5.82;1.98;;;;;;;6.74;100.00;99536.41;5020195;28;20084;-50
2022/04/10 08:34:25;;;;;;;13.45;8.43;;;;;;;6.69;100.00;99536.47;5021112;28;20045;-50
2022/04/10 08:37:09;;;;;;;10.30;3.13;;;;;;;6.89;100.00;99541.41;5021922;28;20044;-50
2022/04/10 08:39:54;;;;;;;3.95;1.85;;;;;;;6.54;100.00;99541.88;5020963;28;20054;-51
2022/04/10 08:42:39;;;;;;;4.53;1.75;;;;;;;6.51;100.00;99540.19;5021019;28;20045;-50
2022/04/10 08:45:25;;;;;;;9.55;3.80;;;;;;;6.77;100.00;99546.78;5020356;28;20049;-50
2022/04/10 08:48:11;;;;;;;5.68;1.40;;;;;;;6.85;92.93;99544.91;5021102;28;20146;-50
2022/04/10 08:50:57;;;;;;;8.93;3.40;;;;;;;6.83;91.37;99546.69;5019705;28;20061;-49
2022/04/10 08:53:43;;;;;;;69.07;35.75;;;;;;;6.73;92.83;99547.72;5021835;28;20754;-50
2022/04/10 08:56:27;;;;;;;54.95;28.30;;;;;;;6.77;93.94;99550.25;5021127;28;20053;-50
2022/04/10 08:59:12;;;;;;;65.15;34.10;;;;;;;6.80;96.43;99549.34;5021559;28;20108;-48
2022/04/10 09:01:57;;;;;;;92.85;47.70;;;;;;;6.88;94.50;99552.69;5020750;28;20075;-51
2022/04/10 09:04:42;;;;;;;34.97;24.17;;;;;;;6.68;94.43;99555.56;5020687;28;20041;-51
2022/04/10 09:07:26;;;;;;;32.53;20.23;;;;;;;6.89;92.45;99557.03;5020147;28;20800;-51
2022/04/10 09:10:14;;;;;;;24.13;12.95;;;;;;;7.16;93.37;99545.34;5020139;28;20041;-51
2022/04/10 09:13:07;;;;;;;6.20;3.50;;;;;;;7.20;93.81;99552.22;5021251;28;20045;-52
2022/04/10 09:16:01;;;;;;;7.97;3.00;;;;;;;6.99;96.57;99558.63;5020248;28;20053;-51
2022/04/10 09:18:47;;;;;;;5.05;2.40;;;;;;;7.07;94.96;99555.91;5019871;28;20038;-51
2022/04/10 09:21:35;;;;;;;14.50;4.25;;;;;;;6.99;94.00;99555.16;5017182;28;20056;-51
2022/04/10 09:24:19;;;;;;;20.08;7.45;;;;;;;6.87;94.82;99563.13;5018468;28;20140;-51
2022/04/10 09:27:05;;;;;;;13.18;5.05;;;;;;;6.65;92.92;99570.38;5018984;28;20056;-51
2022/04/10 09:29:50;;;;;;;7.82;2.50;;;;;;;6.45;94.00;99555.88;5019150;28;20053;-51
2022/04/10 09:32:51;;;;;;;13.82;4.03;;;;;;;6.41;95.77;99564.59;5021395;28;20049;-51
2022/04/10 09:35:42;;;;;;;9.27;1.90;;;;;;;6.52;96.80;99565.31;5020446;28;20057;-52
2022/04/10 09:38:30;;;;;;;3.45;1.83;;;;;;;6.55;94.71;99549.66;5021927;28;20042;-51
2022/04/10 09:41:20;;;;;;;4.63;1.60;;;;;;;6.52;92.17;99552.28;5023105;28;20053;-52
2022/04/10 09:44:21;;;;;;;5.90;1.17;;;;;;;6.75;92.41;99551.13;5022335;28;20523;-51
2022/04/10 09:47:08;;;;;;;8.15;1.33;;;;;;;6.72;90.73;99545.97;5024553;28;20106;-51
2022/04/10 09:49:53;;;;;;;3.28;1.48;;;;;;;6.48;91.74;99542.81;5024064;28;20536;-51
2022/04/10 09:52:38;;;;;;;13.13;3.58;;;;;;;6.79;93.27;99550.22;5026459;28;20041;-51
2022/04/10 09:55:33;;;;;;;12.43;3.67;;;;;;;7.01;96.41;99545.56;5025994;28;20061;-51
2022/04/10 09:58:19;;;;;;;12.38;5.63;;;;;;;7.46;93.88;99543.97;5024501;28;20057;-51
2022/04/10 10:01:06;;;;;;;6.85;2.22;;;;;;;7.12;90.01;99551.50;5024897;28;20139;-52
2022/04/10 10:03:51;;;;;;;7.85;3.35;;;;;;;7.41;90.09;99544.94;5023421;28;20124;-51
2022/04/10 10:06:36;;;;;;;8.60;3.60;;;;;;;7.32;87.57;99548.56;5023818;28;20744;-51
2022/04/10 10:09:22;;;;;;;14.50;7.38;;;;;;;7.67;88.87;99552.31;5023115;28;20057;-51
2022/04/10 10:12:08;;;;;;;13.52;5.03;;;;;;;7.66;89.16;99551.47;5025835;28;21934;-51
2022/04/10 10:14:53;;;;;;;11.00;4.03;;;;;;;7.99;89.86;99546.53;5024763;28;20760;-52
2022/04/10 10:17:37;;;;;;;8.23;3.90;;;;;;;7.89;86.36;99548.44;5024791;28;20092;-51
2022/04/10 10:20:23;;;;;;;11.85;4.50;;;;;;;7.67;88.57;99549.72;5023867;28;20049;-51
2022/04/10 10:23:10;;;;;;;12.85;5.57;;;;;;;7.42;89.74;99557.97;5022058;28;20617;-52
2022/04/10 10:26:30;;;;;;;8.45;4.50;;;;;;;8.28;91.74;99547.72;5020765;28;20069;-52
2022/04/10 10:29:52;;;;;;;4.70;1.60;;;;;;;8.49;89.44;99560.38;5023394;28;20049;-51
2022/04/10 10:32:42;;;;;;;5.68;1.58;;;;;;;8.28;82.27;99552.94;5022818;28;20164;-52
2022/04/10 10:35:47;;;;;;;8.70;1.77;;;;;;;8.11;80.28;99551.53;5022227;28;20112;-51
2022/04/10 10:38:32;;;;;;;6.57;1.55;;;;;;;8.34;79.51;99540.63;5025254;28;20049;-52
2022/04/10 10:41:16;;;;;;;9.52;3.95;;;;;;;8.26;80.95;99553.00;5021852;28;20076;-51
2022/04/10 10:44:38;;;;;;;5.75;2.42;;;;;;;7.87;80.43;99565.88;5021635;28;20075;-51
2022/04/10 10:47:24;;;;;;;6.82;2.50;;;;;;;7.80;84.41;99561.69;5022355;28;20450;-51
2022/04/10 10:50:35;;;;;;;7.70;2.80;;;;;;;7.43;90.86;99562.28;5023882;28;20049;-51
2022/04/10 10:53:43;;;;;;;5.65;2.47;;;;;;;7.18;95.46;99571.34;5024730;28;20053;-51
2022/04/10 10:56:30;;;;;;;10.25;4.80;;;;;;;7.20;93.61;99560.03;5024013;28;20049;-51
2022/04/10 10:59:25;;;;;;;13.75;6.00;;;;;;;7.46;92.09;99562.22;5024679;28;20427;-51
2022/04/10 11:02:14;;;;;;;16.92;6.95;;;;;;;7.71;90.99;99554.88;5024595;28;20052;-52
2022/04/10 11:04:59;;;;;;;17.52;6.70;;;;;;;7.88;89.97;99554.56;5023090;28;20046;-51
2022/04/10 11:07:56;;;;;;;12.50;5.30;;;;;;;8.18;84.65;99554.88;5024139;28;20477;-52
2022/04/10 11:11:03;;;;;;;8.43;3.10;;;;;;;8.47;82.51;99556.09;5025658;28;20096;-52
2022/04/10 11:13:47;;;;;;;9.45;3.30;;;;;;;8.57;78.13;99558.47;5023519;28;20049;-52
2022/04/10 11:16:40;;;;;;;5.18;2.40;;;;;;;8.35;74.34;99562.38;5024084;28;20064;-51
2022/04/10 11:19:24;;;;;;;7.35;2.25;;;;;;;8.20;76.78;99566.16;5022416;28;20045;-52
2022/04/10 11:22:14;;;;;;;7.60;2.92;;;;;;;7.52;81.43;99582.13;5023185;28;20064;-51
2022/04/10 11:24:59;;;;;;;10.23;2.92;;;;;;;6.94;83.47;99581.25;5020671;28;20080;-51
2022/04/10 11:27:57;;;;;;;10.77;4.10;;;;;;;6.61;86.42;99584.31;5022687;28;20049;-51
2022/04/10 11:30:44;;;;;;;8.65;3.05;;;;;;;6.49;89.59;99573.16;5020393;28;20900;-51
2022/04/10 11:33:49;;;;;;;9.38;3.40;;;;;;;6.67;90.11;99579.03;5020515;28;20041;-51
2022/04/10 11:36:48;;;;;;;10.27;4.45;;;;;;;6.41;90.67;99597.56;5022032;28;20736;-49
2022/04/10 11:39:34;;;;;;;7.43;3.92;;;;;;;6.01;94.35;99600.56;5020562;28;20091;-51
2022/04/10 11:42:19;;;;;;;6.32;2.67;;;;;;;5.39;99.88;99593.28;5019978;28;20140;-51
2022/04/10 11:45:04;;;;;;;7.82;2.05;;;;;;;5.19;100.00;99592.53;5020698;28;20496;-51
2022/04/10 11:47:49;;;;;;;6.60;2.38;;;;;;;5.48;100.00;99578.50;5022565;28;20538;-51
2022/04/10 11:50:34;;;;;;;6.95;2.90;;;;;;;5.80;100.00;99573.00;5019962;28;20057;-51
2022/04/10 11:53:18;;;;;;;11.90;5.10;;;;;;;6.15;100.00;99580.50;5020581;28;20858;-51
2022/04/10 11:56:04;;;;;;;8.63;3.50;;;;;;;6.43;99.80;99575.81;5020639;28;20810;-51
2022/04/10 11:58:49;;;;;;;11.35;5.55;;;;;;;6.90;100.00;99582.19;5020261;28;20045;-51
2022/04/10 12:01:35;;;;;;;13.40;6.15;;;;;;;7.56;100.00;99575.13;5021887;28;20045;-51
2022/04/10 12:04:20;;;;;;;11.55;3.55;;;;;;;7.85;100.00;99572.88;5021940;28;20358;-51
2022/04/10 12:07:17;;;;;;;6.95;2.78;;;;;;;7.82;93.57;99572.06;5021238;28;20136;-51
2022/04/10 12:10:03;;;;;;;8.48;3.63;;;;;;;8.15;90.71;99573.19;5019664;28;20049;-51
2022/04/10 12:12:52;;;;;;;6.68;3.45;;;;;;;8.22;90.12;99576.53;5021592;28;20064;-52
2022/04/10 12:15:37;;;;;;;18.02;5.00;;;;;;;8.59;88.78;99571.50;5017730;28;20064;-51
2022/04/10 12:18:22;;;;;;;8.18;3.40;;;;;;;8.37;80.47;99582.31;5021148;28;20167;-51
2022/04/10 12:21:06;;;;;;;6.43;3.10;;;;;;;8.04;84.93;99578.63;5019896;28;20061;-51
2022/04/10 12:24:04;;;;;;;13.02;4.20;;;;;;;8.11;81.79;99582.81;5021099;28;20049;-52
2022/04/10 12:26:49;;;;;;;11.77;5.90;;;;;;;8.28;80.07;99577.28;5019073;28;20185;-52
2022/04/10 12:29:35;;;;;;;11.57;4.13;;;;;;;8.57;80.18;99575.88;5018784;28;20073;-51
2022/04/10 12:32:21;;;;;;;7.82;2.13;;;;;;;9.08;79.83;99570.44;5018954;28;20053;-52
2022/04/10 12:35:11;;;;;;;7.18;2.03;;;;;;;9.53;82.13;99565.03;5020374;28;20531;-49
2022/04/10 12:38:02;;;;;;;11.13;3.65;;;;;;;9.73;79.64;99569.75;5019883;28;20057;-52
2022/04/10 12:40:47;;;;;;;10.18;3.42;;;;;;;10.20;78.80;99562.38;5021033;28;20435;-52
2022/04/10 12:43:32;;;;;;;8.40;3.10;;;;;;;10.71;75.88;99552.22;5021055;28;20053;-53
2022/04/10 12:46:16;;;;;;;5.68;2.63;;;;;;;11.00;74.42;99551.34;5020437;28;20053;-52
2022/04/10 12:49:11;;;;;;;6.97;2.38;;;;;;;11.12;71.71;99547.50;5020742;28;20050;-52
2022/04/10 12:52:02;;;;;;;5.60;2.03;;;;;;;11.21;70.55;99552.47;5018671;28;20056;-50
2022/04/10 12:54:47;;;;;;;5.85;3.50;;;;;;;11.10;65.53;99558.94;5020516;28;20069;-49
2022/04/10 12:57:32;;;;;;;19.13;16.48;;;;;;;10.32;65.39;99550.78;5021004;28;20788;-52
2022/04/10 13:00:26;;;;;;;11.85;5.28;;;;;;;10.46;66.39;99546.88;5020061;28;20080;-52
2022/04/10 13:03:21;;;;;;;9.13;3.33;;;;;;;10.06;63.61;99545.31;5018278;28;20045;-52
2022/04/10 13:06:06;;;;;;;11.75;4.20;;;;;;;9.79;65.92;99549.53;5024403;28;20683;-52
2022/04/10 13:08:51;;;;;;;5.32;2.63;;;;;;;9.91;66.15;99544.84;5023097;28;20528;-52
2022/04/10 13:11:37;;;;;;;6.55;3.45;;;;;;;9.76;64.31;99546.13;5024653;28;20049;-52
2022/04/10 13:14:21;;;;;;;7.88;2.90;;;;;;;9.87;63.47;99549.31;5022462;28;20049;-52